Flight Track Log - Related Links

Times and Time Zones

All times are in EDT time to prevent confusion due to time zone crossing. See the UCA5018 flight status page for this flight to view local times or setup timezone preferences in your user account.


Time Position Orientation Groundspeed Altitude Reporting Facility
EDT Latitude Longitude Course Direction KTS MPH feet Rate Location/Type
Mon 06:55:00 PM 39.2369 -77.7112 327° Northwest  Level FlightAware Approximate
Mon 06:56:00 PM 39.2893 -77.7548 327° Northwest  Level FlightAware Approximate
Mon 06:57:00 PM 39.3416 -77.7985 327° Northwest  Level FlightAware Approximate
Mon 06:58:00 PM 39.3832 -77.8332 327° Northwest  Level FlightAware Approximate
Mon 06:59:00 PM 39.4326 -77.8361 358° North  Level FlightAware Approximate
Mon 07:00:00 PM 39.4820 -77.8388 358° North  Level FlightAware Approximate
Mon 07:01:00 PM 39.5315 -77.8415 358° North  Level FlightAware Approximate
Mon 07:02:00 PM 39.5809 -77.8443 358° North  Level FlightAware Approximate
Mon 07:03:00 PM 39.6303 -77.8470 358° North  Level FlightAware Approximate
Mon 07:04:00 PM 39.6797 -77.8498 358° North  Level FlightAware Approximate
Mon 07:05:00 PM 39.7272 -77.8675 343° North  Level FlightAware Approximate
Mon 07:06:00 PM 39.7881 -77.8919 343° North  Level FlightAware Approximate
Mon 07:07:00 PM 39.8490 -77.9163 343° North  Level FlightAware Approximate
Mon 07:08:00 PM 39.9085 -77.9459 339° North  Level FlightAware Approximate
Mon 07:09:00 PM 39.9716 -77.9500 North  Level FlightAware Approximate
Mon 07:10:00 PM 40.0353 -77.9500 North  Level FlightAware Approximate
Mon 07:11:00 PM 40.0990 -77.9500 North  Level FlightAware Approximate
Mon 07:12:00 PM 40.1627 -77.9500 North  Level FlightAware Approximate
Mon 07:13:00 PM 40.2264 -77.9500 North  Level FlightAware Approximate
Mon 07:14:00 PM 40.2901 -77.9500 North  Level FlightAware Approximate
Mon 07:15:00 PM 40.3411 -77.9667 North  Level FlightAware Approximate
Mon 07:16:00 PM 40.4042 -77.9667 North  Level FlightAware Approximate
Mon 07:17:00 PM 40.4673 -77.9667 North  Level FlightAware Approximate
Mon 07:18:00 PM 40.5314 -77.9667 North  Level FlightAware Approximate
Mon 07:19:00 PM 40.5955 -77.9667 North  Level FlightAware Approximate
Mon 07:20:00 PM 40.6596 -77.9667 North  Level FlightAware Approximate
Mon 07:21:00 PM 40.7237 -77.9711 355° North  Level FlightAware Approximate
Mon 07:22:00 PM 40.7870 -77.9686 North  Level FlightAware Approximate
Mon 07:23:00 PM 40.8527 -77.9676 346° North  Level FlightAware Approximate
Mon 07:24:00 PM 40.8989 -77.9645 123° Southeast  Level FlightAware Approximate
Mon 07:25:00 PM 40.8640 -77.8947 123° Southeast  Level FlightAware Approximate
Mon 07:26:00 PM 40.8493 -77.8487 180° South  Level Estimated
Mon 07:27:00 PM 40.8493 -77.8487 180° South  Level Estimated
Mon 07:28:00 PM 40.8493 -77.8487 180° South  Level Estimated
Mon 07:29:00 PM 40.8493 -77.8487 90° East  Level Estimated
Mon 07:30:00 PM 40.8493 -77.8487 217° Southwest  Level Estimated
Mon 07:31:00 PM 40.8493 -77.8487 90° East  Level Estimated
Mon 07:32:00 PM 40.8493 -77.8487 217° Southwest  Level Estimated
Mon 07:33:00 PM 40.8493 -77.8487 90° East  Level Estimated
Mon 07:34:00 PM 40.8493 -77.8487 217° Southwest  Level Estimated
Mon 07:35:00 PM 40.8493 -77.8487 90° East  Level Estimated
Mon 07:36:00 PM 40.8493 -77.8487 217° Southwest  Level Estimated
Mon 07:37:00 PM 40.8493 -77.8487 90° East  Level Estimated
Mon 07:38:00 PM 40.8493 -77.8487 217° Southwest  Level Estimated
Mon 07:39:00 PM 40.8493 -77.8487 90° East  Level Estimated

Login

Don't have an account? Register now (free) for customized features, flight alerts, and more!